Main page
METAR-TAF:

METAR-TAF

Airports :

De Kooy Airfield

Den Helder, Netherlands

latitude: 52-55N, longitude: 004-47E, elevation: 0 m

Current weather observation

The report was made 33 minutes ago, at 23:25 UTC
Wind 5 kt from the North/Northeast
Temperature 6°C
Humidity 87%
Pressure 1010 hPa
Visibility 10 km or more
Scattered clouds at a height of 8300 ft
Broken clouds at a height of 8900 ft
Overcast at a height of 9500 ft

METAR: EHKD 172325Z AUTO 03005KT 9999 SCT083 BKN089 OVC095 06/04 Q1010 BLU

Time: 00:58 (23:58 UTC)

Forecast

The report was made 10 hours and 2 minutes ago, at 13:56 UTC
Forecast valid from 17 at 14 UTC to 18 at 02 UTC
Wind 4 kt from the East
Visibility 10 km or more
no clouds below 1500 m and no cumulonimbus
Becoming
from 17 at 19 UTC to 17 at 22 UTC
Wind 10 kt from the Northeast
Becoming
from 17 at 23 UTC to 18 at 01 UTC
Scattered clouds at a height of 1500 ft
Overcast at a height of 2000 ft

TAF: EHKD 171356Z 1714/1802 08004KT CAVOK BECMG 1719/1722 04010KT BECMG 1723/1801 SCT015 OVC020

Weather observations and forecasts of more than 4000 airports (METAR and TAF reports).

The available stations are represented by yellow and red dots on the map.

Hover mouse over dot to see the name of the station.

Then click to see weather observations and forecasts.

To change the map : click on the green buttons with a black cross to zoom in, on the green button with a dash to zoom out, or on the green arrows for adjacent maps.


METAR-TAF: